Time;durP1;ratioP1;P1;durP2;ratioP2;P2;SDS_P1;SDS_P2;PMS_P1;PMS_P2;Temp;Humidity;BMP_temperature;BMP_pressure;BME280_temperature;BME280_humidity;BME280_pressure;Samples;Min_cycle;Max_cycle;Signal;HPM_P1;HPM_P2
2022/04/14 00:02:08;;;;;;;3.05;1.90;;;20.60;52.50;;;;;;5128699;27;20042;-56
2022/04/14 00:04:35;;;;;;;2.10;1.90;;;20.60;52.40;;;;;;5115003;28;20044;-56
2022/04/14 00:07:02;;;;;;;2.40;1.95;;;20.60;52.40;;;;;;5112136;28;20051;-56
2022/04/14 00:09:28;;;;;;;2.30;2.10;;;20.60;52.40;;;;;;5111552;28;20466;-56
2022/04/14 00:11:54;;;;;;;2.58;2.13;;;20.60;52.50;;;;;;5114645;28;20050;-56
2022/04/14 00:14:20;;;;;;;2.97;1.70;;;20.60;52.40;;;;;;5125614;27;20047;-56
2022/04/14 00:16:45;;;;;;;2.25;2.05;;;20.50;52.30;;;;;;5134901;27;20035;-56
2022/04/14 00:19:11;;;;;;;3.47;1.90;;;20.50;52.30;;;;;;5134827;27;20046;-56
2022/04/14 00:21:36;;;;;;;2.65;2.20;;;20.50;52.30;;;;;;5133884;27;20140;-56
2022/04/14 00:24:02;;;;;;;3.47;2.10;;;20.50;52.20;;;;;;5135296;27;20046;-56
2022/04/14 00:26:28;;;;;;;2.50;2.00;;;20.50;52.20;;;;;;5132251;27;20372;-56
2022/04/14 00:28:54;;;;;;;3.35;2.17;;;20.50;52.10;;;;;;5135068;27;20456;-56
2022/04/14 00:31:19;;;;;;;2.38;1.98;;;20.50;52.10;;;;;;5134706;27;20118;-56
2022/04/14 00:33:45;;;;;;;3.17;1.98;;;20.50;52.10;;;;;;5130906;27;20051;-56
2022/04/14 00:36:10;;;;;;;4.78;2.10;;;20.50;52.10;;;;;;5121377;27;20035;-56
2022/04/14 00:38:36;;;;;;;3.95;2.28;;;20.50;52.00;;;;;;5134662;27;20037;-56
2022/04/14 00:41:01;;;;;;;4.10;2.25;;;20.50;52.00;;;;;;5134992;27;20050;-56
2022/04/14 00:43:31;;;;;;;2.70;2.10;;;20.50;52.10;;;;;;5135096;27;20057;-56
2022/04/14 00:45:58;;;;;;;4.38;2.20;;;20.50;52.00;;;;;;5130920;27;20085;-56
2022/04/14 00:48:24;;;;;;;3.80;2.35;;;20.50;52.00;;;;;;5134558;27;20103;-56
2022/04/14 00:50:50;;;;;;;2.90;2.25;;;20.50;52.00;;;;;;5134580;27;20107;-56
2022/04/14 00:53:16;;;;;;;2.60;2.03;;;20.50;51.90;;;;;;5133257;28;20435;-56
2022/04/14 00:55:41;;;;;;;2.97;2.05;;;20.50;51.90;;;;;;5134831;27;20031;-56
2022/04/14 00:58:07;;;;;;;3.35;2.22;;;20.50;52.00;;;;;;5134168;27;20043;-56
2022/04/14 01:00:32;;;;;;;3.20;2.20;;;20.50;52.70;;;;;;5134468;27;20046;-56
2022/04/14 01:02:59;;;;;;;2.58;2.33;;;20.50;52.00;;;;;;5134880;27;20047;-56
2022/04/14 01:05:27;;;;;;;2.50;2.30;;;20.50;51.90;;;;;;5134841;27;20039;-56
2022/04/14 01:07:55;;;;;;;3.40;2.40;;;20.50;51.90;;;;;;5134386;27;20122;-56
2022/04/14 01:10:20;;;;;;;3.42;2.08;;;20.50;51.80;;;;;;5137825;27;20031;-56
2022/04/14 01:12:46;;;;;;;3.15;2.00;;;20.50;51.90;;;;;;5138271;27;20053;-56
2022/04/14 01:15:13;;;;;;;2.55;2.35;;;20.50;51.90;;;;;;5137024;27;20043;-56
2022/04/14 01:17:40;;;;;;;3.60;2.72;;;20.50;51.80;;;;;;5138301;27;20042;-56
2022/04/14 01:20:08;;;;;;;3.15;2.58;;;20.50;51.80;;;;;;5138192;27;20474;-56
2022/04/14 01:22:45;;;;;;;2.80;2.50;;;20.50;51.80;;;;;;5123227;27;20077;-56
2022/04/14 01:25:11;;;;;;;3.25;2.30;;;20.50;51.80;;;;;;5118137;28;20281;-56
2022/04/14 01:27:36;;;;;;;4.22;2.55;;;20.40;51.80;;;;;;5118107;27;20039;-56
2022/04/14 01:30:03;;;;;;;2.97;2.05;;;20.50;51.80;;;;;;5117931;28;20519;-56
2022/04/14 01:32:28;;;;;;;3.40;2.40;;;20.50;51.70;;;;;;5117435;28;20044;-56
2022/04/14 01:34:54;;;;;;;3.10;2.80;;;20.50;51.80;;;;;;5117473;28;20478;-56
2022/04/14 01:37:19;;;;;;;3.30;2.40;;;20.50;51.80;;;;;;5115701;28;20035;-56
2022/04/14 01:39:45;;;;;;;3.70;2.33;;;20.50;51.70;;;;;;5117616;28;20124;-56
2022/04/14 01:42:11;;;;;;;2.92;2.40;;;20.40;51.70;;;;;;5117798;27;20477;-56
2022/04/14 01:44:37;;;;;;;3.53;2.30;;;20.50;51.70;;;;;;5116187;28;20039;-56
2022/04/14 01:47:03;;;;;;;3.92;2.50;;;20.40;51.60;;;;;;5129716;27;20046;-56
2022/04/14 01:49:29;;;;;;;2.47;2.28;;;20.40;51.60;;;;;;5131807;27;20043;-56
2022/04/14 01:51:55;;;;;;;2.55;2.35;;;20.40;51.60;;;;;;5117878;28;20477;-56
2022/04/14 01:54:20;;;;;;;3.10;2.50;;;20.40;51.60;;;;;;5117064;28;20047;-56
2022/04/14 01:56:46;;;;;;;4.32;3.00;;;20.40;51.60;;;;;;5116939;28;20089;-56
2022/04/14 01:59:12;;;;;;;3.75;2.30;;;20.40;51.60;;;;;;5116854;28;20043;-56
2022/04/14 02:01:38;;;;;;;3.13;2.25;;;20.40;51.60;;;;;;5116781;27;20074;-56
2022/04/14 02:04:05;;;;;;;2.72;2.50;;;20.40;51.60;;;;;;5116704;28;20043;-57
2022/04/14 02:06:31;;;;;;;2.88;2.53;;;20.40;51.50;;;;;;5116831;28;20047;-56
2022/04/14 02:08:56;;;;;;;2.85;2.55;;;20.40;51.50;;;;;;5116737;28;20122;-56
2022/04/14 02:11:23;;;;;;;3.40;2.58;;;20.40;52.20;;;;;;5116683;28;20102;-56
2022/04/14 02:13:48;;;;;;;2.47;2.17;;;20.40;51.50;;;;;;5117704;28;20043;-56
2022/04/14 02:16:15;;;;;;;3.28;2.50;;;20.40;51.40;;;;;;5116585;28;20062;-56
2022/04/14 02:18:41;;;;;;;2.72;2.53;;;20.40;51.40;;;;;;5116255;27;20382;-56
2022/04/14 02:21:06;;;;;;;3.17;2.42;;;20.40;51.40;;;;;;5114135;28;20039;-56
2022/04/14 02:23:32;;;;;;;2.38;2.13;;;20.40;51.40;;;;;;5116477;28;20413;-56
2022/04/14 02:25:57;;;;;;;3.00;2.60;;;20.40;51.40;;;;;;5116815;28;20455;-56
2022/04/14 02:28:23;;;;;;;3.25;2.55;;;20.40;51.30;;;;;;5116861;28;20036;-57
2022/04/14 02:30:49;;;;;;;4.43;2.92;;;20.40;51.40;;;;;;5115872;28;20066;-57
2022/04/14 02:33:15;;;;;;;3.95;2.40;;;20.40;51.30;;;;;;5116779;28;20036;-56
2022/04/14 02:35:40;;;;;;;3.10;2.80;;;20.40;51.30;;;;;;5116505;28;20043;-56
2022/04/14 02:38:06;;;;;;;3.20;2.92;;;20.40;51.20;;;;;;5116203;28;20061;-56
2022/04/14 02:40:31;;;;;;;4.00;3.13;;;20.40;51.20;;;;;;5116101;28;20039;-56
2022/04/14 02:42:57;;;;;;;3.08;2.58;;;20.40;51.20;;;;;;5116087;28;20046;-56
2022/04/14 02:45:27;;;;;;;3.85;2.45;;;20.40;51.20;;;;;;5116005;28;20035;-56
2022/04/14 02:47:54;;;;;;;4.63;2.90;;;20.40;51.10;;;;;;5114876;28;20040;-56
2022/04/14 02:50:20;;;;;;;3.35;2.78;;;20.40;51.20;;;;;;5114738;28;20080;-56
2022/04/14 02:52:50;;;;;;;3.55;2.67;;;20.40;51.20;;;;;;5115896;28;20043;-56
2022/04/14 02:55:19;;;;;;;2.72;2.45;;;20.40;51.20;;;;;;5114672;28;20038;-56
2022/04/14 02:57:45;;;;;;;3.17;2.72;;;20.40;51.20;;;;;;5097857;28;20452;-56
2022/04/14 03:00:11;;;;;;;2.90;2.60;;;20.40;51.10;;;;;;5116267;28;20508;-56
2022/04/14 03:02:38;;;;;;;3.03;2.80;;;20.40;51.10;;;;;;5115743;28;20043;-56
2022/04/14 03:05:04;;;;;;;3.22;2.70;;;20.40;51.10;;;;;;5115291;28;20031;-56
2022/04/14 03:07:31;;;;;;;2.80;2.53;;;20.40;51.10;;;;;;5116129;28;20114;-56
2022/04/14 03:09:56;;;;;;;5.45;3.42;;;20.30;51.00;;;;;;5115622;28;20044;-56
2022/04/14 03:12:22;;;;;;;3.00;2.80;;;20.40;51.00;;;;;;5115691;28;20085;-56
2022/04/14 03:14:48;;;;;;;3.88;2.70;;;20.30;51.00;;;;;;5115468;28;20124;-56
2022/04/14 03:17:14;;;;;;;3.20;2.67;;;20.30;51.00;;;;;;5115381;28;20078;-56
2022/04/14 03:19:40;;;;;;;3.45;3.15;;;20.30;51.00;;;;;;5115099;28;20059;-56
2022/04/14 03:22:05;;;;;;;3.75;3.15;;;20.30;51.00;;;;;;5114392;28;20100;-57
2022/04/14 03:24:31;;;;;;;3.45;2.97;;;20.30;51.00;;;;;;5113694;28;20040;-56
2022/04/14 03:26:57;;;;;;;3.33;2.83;;;20.30;51.00;;;;;;5113811;28;20046;-56
2022/04/14 03:29:23;;;;;;;2.88;2.67;;;20.30;51.00;;;;;;5115196;28;20122;-56
2022/04/14 03:31:49;;;;;;;3.70;2.65;;;20.30;50.90;;;;;;5114410;28;20051;-56
2022/04/14 03:34:14;;;;;;;5.40;3.30;;;20.30;50.90;;;;;;5115103;28;20040;-56
2022/04/14 03:36:40;;;;;;;3.13;2.80;;;20.30;50.90;;;;;;5114321;28;20047;-56
2022/04/14 03:39:05;;;;;;;3.63;3.03;;;20.30;50.90;;;;;;5113476;28;20180;-56
2022/04/14 03:41:31;;;;;;;3.03;2.75;;;20.30;50.90;;;;;;5115230;28;20039;-56
2022/04/14 03:43:57;;;;;;;3.20;2.90;;;20.30;50.80;;;;;;5114975;28;20040;-56
2022/04/14 03:46:23;;;;;;;3.53;3.17;;;20.30;50.80;;;;;;5113252;28;20043;-56
2022/04/14 03:48:49;;;;;;;3.92;2.92;;;20.30;50.80;;;;;;5114742;28;20035;-56
2022/04/14 03:51:15;;;;;;;3.97;2.97;;;20.30;50.70;;;;;;5113982;28;20114;-56
2022/04/14 03:53:44;;;;;;;3.28;2.90;;;20.30;50.80;;;;;;5115277;28;20122;-56
2022/04/14 03:56:10;;;;;;;3.35;3.03;;;20.30;50.70;;;;;;5115224;28;20092;-56
2022/04/14 03:58:36;;;;;;;3.70;3.00;;;20.30;50.70;;;;;;5113456;28;20093;-56
2022/04/14 04:01:02;;;;;;;2.95;2.75;;;20.30;50.80;;;;;;5122131;27;20088;-56
2022/04/14 04:03:28;;;;;;;3.63;3.28;;;20.30;50.70;;;;;;5135658;27;20369;-56
2022/04/14 04:05:55;;;;;;;2.92;2.63;;;20.30;50.60;;;;;;5135045;27;20039;-56
2022/04/14 04:08:21;;;;;;;4.25;3.25;;;20.30;50.60;;;;;;5135075;27;20041;-56
2022/04/14 04:10:47;;;;;;;3.70;3.20;;;20.30;50.60;;;;;;5135421;27;20030;-57
2022/04/14 04:13:13;;;;;;;4.85;3.05;;;20.30;50.60;;;;;;5135371;27;20142;-56
2022/04/14 04:15:39;;;;;;;3.13;2.72;;;20.30;50.60;;;;;;5134564;27;20043;-56
2022/04/14 04:18:05;;;;;;;3.05;2.85;;;20.20;50.50;;;;;;5134851;27;20195;-56
2022/04/14 04:20:34;;;;;;;5.00;3.53;;;20.30;50.60;;;;;;5133540;27;20389;-56
2022/04/14 04:23:03;;;;;;;3.97;2.83;;;20.20;50.40;;;;;;5134549;27;20055;-56
2022/04/14 04:25:28;;;;;;;4.95;3.42;;;20.20;50.40;;;;;;5134644;27;20050;-56
2022/04/14 04:27:54;;;;;;;3.55;3.08;;;20.20;50.40;;;;;;5134691;27;20065;-56
2022/04/14 04:30:19;;;;;;;4.30;3.35;;;20.20;50.40;;;;;;5134413;27;20065;-56
2022/04/14 04:32:45;;;;;;;4.85;3.60;;;20.20;50.50;;;;;;5134704;27;20046;-56
2022/04/14 04:35:11;;;;;;;4.38;3.42;;;20.20;50.50;;;;;;5135233;27;20046;-56
2022/04/14 04:37:37;;;;;;;3.97;3.58;;;20.20;50.50;;;;;;5133433;27;20550;-56
2022/04/14 04:40:03;;;;;;;10.23;3.67;;;20.20;50.50;;;;;;5133984;28;20075;-56
2022/04/14 04:42:29;;;;;;;4.57;3.67;;;20.20;50.40;;;;;;5134535;27;20373;-56
2022/04/14 04:44:54;;;;;;;3.92;3.53;;;20.20;50.40;;;;;;5136695;27;20031;-56
2022/04/14 04:47:20;;;;;;;3.75;3.30;;;20.20;50.40;;;;;;5138714;27;20039;-56
2022/04/14 04:49:47;;;;;;;4.25;3.38;;;20.20;50.50;;;;;;5139173;27;20031;-56
2022/04/14 04:52:12;;;;;;;5.80;3.70;;;20.20;50.50;;;;;;5138747;27;20412;-56
2022/04/14 04:54:38;;;;;;;5.78;3.33;;;20.20;50.50;;;;;;5138789;27;20042;-56
2022/04/14 04:57:04;;;;;;;4.38;3.72;;;20.20;50.50;;;;;;5138718;27;20039;-56
2022/04/14 04:59:30;;;;;;;8.10;3.78;;;20.20;50.50;;;;;;5138950;27;20066;-56
2022/04/14 05:01:55;;;;;;;4.20;3.13;;;20.20;50.50;;;;;;5139148;27;20481;-56
2022/04/14 05:04:21;;;;;;;5.45;3.95;;;20.20;50.50;;;;;;5138496;27;20085;-56
2022/04/14 05:06:46;;;;;;;4.20;3.63;;;20.20;50.50;;;;;;5138486;27;20090;-57
2022/04/14 05:09:12;;;;;;;5.85;4.25;;;20.20;50.50;;;;;;5138999;27;20035;-56
2022/04/14 05:11:37;;;;;;;6.07;4.38;;;20.10;50.50;;;;;;5138111;27;20047;-56
2022/04/14 05:14:03;;;;;;;4.35;3.65;;;20.10;50.60;;;;;;5121817;27;20082;-56
2022/04/14 05:16:29;;;;;;;4.45;4.03;;;20.20;50.70;;;;;;5117802;28;20054;-57
2022/04/14 05:18:54;;;;;;;5.70;3.72;;;20.20;50.70;;;;;;5117333;27;20463;-56
2022/04/14 05:21:20;;;;;;;5.75;3.92;;;20.20;50.80;;;;;;5138849;27;20039;-57
2022/04/14 05:23:45;;;;;;;7.20;4.20;;;20.20;50.70;;;;;;5127319;27;20027;-57
2022/04/14 05:26:11;;;;;;;6.80;4.63;;;20.20;50.70;;;;;;5118121;28;20038;-56
2022/04/14 05:28:37;;;;;;;4.53;4.10;;;20.20;50.80;;;;;;5120830;27;20508;-60
2022/04/14 05:31:03;;;;;;;4.40;4.00;;;20.20;51.00;;;;;;5123881;27;20523;-57
2022/04/14 05:33:28;;;;;;;6.07;4.68;;;20.20;51.00;;;;;;5115066;28;20080;-56
2022/04/14 05:35:54;;;;;;;4.88;4.00;;;20.20;50.90;;;;;;5118061;28;20043;-57
2022/04/14 05:38:20;;;;;;;4.32;3.92;;;20.10;50.80;;;;;;5124401;27;20043;-56
2022/04/14 05:40:45;;;;;;;5.93;4.07;;;20.20;50.80;;;;;;5137940;27;20035;-56
2022/04/14 05:43:16;;;;;;;5.80;4.45;;;20.20;50.80;;;;;;5135665;27;20039;-57
2022/04/14 05:45:44;;;;;;;5.00;4.20;;;20.20;50.80;;;;;;5125609;27;20423;-56
2022/04/14 05:48:12;;;;;;;4.32;3.92;;;20.20;50.80;;;;;;5117456;27;20086;-56
2022/04/14 05:50:38;;;;;;;4.45;4.05;;;20.20;50.80;;;;;;5134277;27;20043;-58
2022/04/14 05:53:04;;;;;;;4.70;4.22;;;20.20;50.70;;;;;;5135231;27;20035;-57
2022/04/14 05:55:29;;;;;;;6.25;3.88;;;20.10;50.70;;;;;;5132201;27;20066;-57
2022/04/14 05:57:55;;;;;;;5.40;4.88;;;20.10;50.70;;;;;;5130705;27;20040;-56
2022/04/14 06:00:20;;;;;;;6.45;4.25;;;20.10;50.60;;;;;;5140644;27;20122;-57
2022/04/14 06:02:46;;;;;;;6.47;4.78;;;20.10;50.30;;;;;;5141522;27;20092;-56
2022/04/14 06:05:12;;;;;;;5.82;4.70;;;20.10;50.20;;;;;;5134853;27;20039;-56
2022/04/14 06:07:39;;;;;;;5.82;5.03;;;20.10;50.30;;;;;;5119150;27;20114;-56
2022/04/14 06:10:06;;;;;;;5.50;5.00;;;20.10;50.20;;;;;;5113537;27;20408;-56
2022/04/14 06:12:31;;;;;;;5.20;4.47;;;20.10;50.10;;;;;;5134208;27;20291;-56
2022/04/14 06:14:57;;;;;;;6.55;5.03;;;20.10;50.10;;;;;;5137825;27;20582;-56
2022/04/14 06:17:22;;;;;;;5.90;4.70;;;20.10;50.10;;;;;;5134902;27;20047;-56
2022/04/14 06:19:48;;;;;;;7.03;5.15;;;20.10;50.20;;;;;;5137218;27;20093;-57
2022/04/14 06:22:14;;;;;;;6.88;5.57;;;20.10;50.20;;;;;;5137635;27;20047;-56
2022/04/14 06:24:39;;;;;;;6.82;5.45;;;20.10;50.20;;;;;;5137515;27;20039;-56
2022/04/14 06:27:06;;;;;;;5.43;4.85;;;20.10;50.20;;;;;;5137810;27;20114;-57
2022/04/14 06:29:31;;;;;;;5.53;5.03;;;20.10;50.00;;;;;;5116550;27;20051;-57
2022/04/14 06:31:57;;;;;;;5.80;4.40;;;20.10;50.00;;;;;;5116957;28;20050;-57
2022/04/14 06:34:23;;;;;;;5.18;4.55;;;20.10;50.10;;;;;;5116571;28;20039;-57
2022/04/14 06:36:50;;;;;;;6.72;5.15;;;20.10;50.00;;;;;;5130952;27;20105;-57
2022/04/14 06:39:16;;;;;;;5.90;4.63;;;20.10;50.00;;;;;;5117413;27;20035;-57
2022/04/14 06:41:42;;;;;;;5.40;4.70;;;20.10;50.00;;;;;;5116123;28;20084;-57
2022/04/14 06:44:07;;;;;;;5.55;4.80;;;20.10;50.00;;;;;;5114712;27;20035;-56
2022/04/14 06:46:33;;;;;;;5.57;4.60;;;20.10;50.00;;;;;;5115941;27;20172;-57
2022/04/14 06:48:59;;;;;;;4.57;4.05;;;20.10;50.00;;;;;;5111792;27;20043;-57
2022/04/14 06:51:24;;;;;;;6.03;4.22;;;20.10;50.00;;;;;;5123783;27;20050;-57
2022/04/14 06:53:50;;;;;;;5.43;4.93;;;20.10;50.00;;;;;;5124245;27;20035;-57
2022/04/14 06:56:15;;;;;;;5.80;4.45;;;20.10;50.00;;;;;;5125258;27;20047;-57
2022/04/14 06:58:42;;;;;;;4.43;3.95;;;20.10;50.00;;;;;;5113577;28;20036;-57
2022/04/14 07:01:08;;;;;;;5.65;4.65;;;20.10;50.00;;;;;;5116335;28;20077;-57
2022/04/14 07:03:34;;;;;;;4.38;3.97;;;20.20;50.10;;;;;;5111007;27;20072;-58
2022/04/14 07:06:00;;;;;;;3.75;3.45;;;20.20;50.20;;;;;;5113280;27;20368;-58
2022/04/14 07:08:26;;;;;;;4.28;3.63;;;20.20;50.30;;;;;;5117158;27;20119;-58
2022/04/14 07:10:55;;;;;;;4.57;3.65;;;20.20;50.30;;;;;;5116011;27;20052;-58
2022/04/14 07:13:20;;;;;;;5.22;4.00;;;20.20;50.30;;;;;;5114103;27;20061;-58
2022/04/14 07:15:46;;;;;;;6.38;3.92;;;20.20;50.30;;;;;;5114687;27;20119;-57
2022/04/14 07:18:12;;;;;;;4.45;3.90;;;20.20;50.20;;;;;;5119420;27;20043;-57
2022/04/14 07:20:38;;;;;;;6.35;3.90;;;20.20;50.20;;;;;;5111315;27;20670;-58
2022/04/14 07:23:05;;;;;;;4.38;3.60;;;20.20;50.20;;;;;;5114878;27;20071;-57
2022/04/14 07:25:33;;;;;;;4.72;4.10;;;20.20;50.30;;;;;;5111487;27;20139;-57
2022/04/14 07:28:00;;;;;;;4.00;3.25;;;20.30;50.40;;;;;;5122445;27;20043;-57
2022/04/14 07:30:26;;;;;;;5.65;4.45;;;20.30;50.40;;;;;;5111837;27;20114;-58
2022/04/14 07:32:53;;;;;;;6.07;4.13;;;20.30;50.40;;;;;;5113451;27;20035;-57
2022/04/14 07:35:21;;;;;;;5.72;4.05;;;20.30;50.40;;;;;;5115275;27;20035;-58
2022/04/14 07:37:48;;;;;;;5.82;4.15;;;20.30;50.50;;;;;;5116062;27;20047;-58
2022/04/14 07:40:14;;;;;;;5.72;4.20;;;20.30;50.50;;;;;;5114764;27;20043;-58
2022/04/14 07:42:45;;;;;;;5.80;4.30;;;20.30;50.50;;;;;;5114816;27;20081;-57
2022/04/14 07:45:12;;;;;;;4.18;3.42;;;20.30;50.50;;;;;;5112814;27;20035;-57
2022/04/14 07:47:41;;;;;;;4.47;3.80;;;20.30;50.50;;;;;;5114288;27;20059;-58
2022/04/14 07:50:07;;;;;;;5.70;4.13;;;20.30;50.50;;;;;;5113991;27;20054;-58
2022/04/14 07:52:47;;;;;;;5.93;3.95;;;20.30;50.50;;;;;;5114137;27;20055;-58
2022/04/14 07:55:20;;;;;;;4.97;4.13;;;20.40;50.50;;;;;;5113847;27;20039;-58
2022/04/14 07:57:45;;;;;;;4.50;4.10;;;20.40;50.50;;;;;;5116204;27;20389;-57
2022/04/14 08:00:12;;;;;;;5.07;3.75;;;20.40;50.50;;;;;;5114381;27;20056;-59
2022/04/14 08:03:10;;;;;;;4.40;4.00;;;20.40;50.50;;;;;;5115247;27;20047;-58
2022/04/14 08:05:37;;;;;;;5.60;4.07;;;20.40;50.50;;;;;;5084487;27;20173;-57
2022/04/14 08:08:04;;;;;;;4.38;3.97;;;20.40;50.60;;;;;;5111924;27;20099;-58
2022/04/14 08:10:30;;;;;;;6.13;4.50;;;20.30;50.60;;;;;;5114328;27;20442;-59
2022/04/14 08:12:56;;;;;;;6.13;4.40;;;20.40;50.60;;;;;;5111467;27;20052;-58
2022/04/14 08:15:21;;;;;;;4.25;3.85;;;20.40;50.60;;;;;;5114313;27;20047;-57
2022/04/14 08:17:47;;;;;;;5.13;4.22;;;20.40;50.60;;;;;;5114955;27;20494;-58
2022/04/14 08:20:15;;;;;;;6.22;3.92;;;20.40;50.60;;;;;;5111986;27;20406;-58
2022/04/14 08:22:44;;;;;;;4.68;4.00;;;20.40;50.60;;;;;;5110379;27;20122;-57
2022/04/14 08:25:13;;;;;;;5.63;4.25;;;20.40;50.60;;;;;;5113718;27;20043;-58
2022/04/14 08:27:38;;;;;;;5.75;4.25;;;20.40;50.60;;;;;;5114612;27;20044;-57
2022/04/14 08:30:04;;;;;;;4.63;3.67;;;20.40;50.60;;;;;;5113670;27;20547;-57
2022/04/14 08:32:30;;;;;;;5.35;4.22;;;20.40;50.60;;;;;;5112677;27;20043;-58
2022/04/14 08:34:56;;;;;;;5.35;3.97;;;20.40;50.60;;;;;;5114231;27;20055;-58
2022/04/14 08:37:21;;;;;;;5.03;4.10;;;20.40;50.60;;;;;;5112803;27;20043;-58
2022/04/14 08:39:47;;;;;;;4.75;4.00;;;20.40;50.60;;;;;;5114083;27;20054;-58
2022/04/14 08:42:20;;;;;;;5.13;3.88;;;20.40;50.60;;;;;;5113783;28;20031;-57
2022/04/14 08:44:49;;;;;;;3.88;3.20;;;20.40;50.60;;;;;;5110592;27;20462;-57
2022/04/14 08:47:16;;;;;;;5.63;4.30;;;20.40;50.60;;;;;;5113738;27;20075;-57
2022/04/14 08:49:44;;;;;;;4.38;3.88;;;20.50;50.70;;;;;;5113545;28;20127;-57
2022/04/14 08:52:14;;;;;;;4.53;3.75;;;20.40;50.60;;;;;;5119285;28;20111;-57
2022/04/14 08:54:44;;;;;;;5.10;3.80;;;20.50;50.60;;;;;;5113506;28;20039;-58
2022/04/14 08:57:13;;;;;;;5.37;3.83;;;20.50;50.60;;;;;;5117361;27;20058;-57
2022/04/14 08:59:43;;;;;;;5.68;4.13;;;20.50;50.60;;;;;;5113880;28;20047;-57
2022/04/14 09:02:16;;;;;;;5.47;4.15;;;20.50;50.60;;;;;;5111933;28;20050;-58
2022/04/14 09:04:43;;;;;;;5.10;4.20;;;20.50;50.60;;;;;;5112529;28;20039;-58
2022/04/14 09:07:12;;;;;;;5.68;3.80;;;20.50;50.60;;;;;;5111124;28;20039;-57
2022/04/14 09:09:38;;;;;;;4.80;4.15;;;20.50;50.60;;;;;;5114888;28;20043;-57
2022/04/14 09:12:06;;;;;;;4.85;3.85;;;20.50;50.60;;;;;;5121810;28;20048;-57
2022/04/14 09:14:35;;;;;;;3.95;3.50;;;20.50;50.60;;;;;;5111410;28;20058;-57
2022/04/14 09:17:04;;;;;;;4.95;3.65;;;20.50;50.50;;;;;;5111944;28;20119;-57
2022/04/14 09:19:32;;;;;;;4.50;3.50;;;20.50;50.50;;;;;;5113515;27;20047;-57
2022/04/14 09:21:58;;;;;;;4.53;4.03;;;20.50;50.50;;;;;;5118873;28;20034;-58
2022/04/14 09:24:43;;;;;;;4.30;3.63;;;20.50;50.50;;;;;;5111771;28;20171;-57
2022/04/14 09:27:09;;;;;;;4.53;3.80;;;20.50;50.50;;;;;;5115871;27;20403;-59
2022/04/14 09:29:35;;;;;;;4.05;3.63;;;20.50;50.50;;;;;;5094976;27;20036;-58
2022/04/14 09:32:01;;;;;;;3.90;3.50;;;20.50;50.60;;;;;;5116777;27;20047;-58
2022/04/14 09:34:51;;;;;;;5.32;3.70;;;20.50;50.60;;;;;;5118091;27;20428;-59
2022/04/14 09:37:17;;;;;;;4.25;3.70;;;20.50;50.40;;;;;;5119179;27;20110;-60
2022/04/14 09:40:00;;;;;;;6.55;4.40;;;20.50;50.50;;;;;;5114682;27;20047;-57
2022/04/14 09:42:30;;;;;;;5.38;3.90;;;20.50;50.40;;;;;;5119155;27;20697;-58
2022/04/14 09:45:16;;;;;;;4.72;4.03;;;20.50;50.50;;;;;;5118627;27;20562;-57
2022/04/14 09:47:42;;;;;;;6.10;4.45;;;20.50;50.50;;;;;;5117062;27;20039;-57
2022/04/14 09:50:26;;;;;;;5.53;4.95;;;20.50;50.40;;;;;;5121073;27;20035;-57
2022/04/14 09:52:57;;;;;;;5.38;4.88;;;20.50;50.40;;;;;;5135647;27;20028;-57
2022/04/14 09:55:22;;;;;;;6.07;5.47;;;20.50;50.50;;;;;;5120072;27;20035;-57
2022/04/14 09:58:06;;;;;;;6.15;5.20;;;20.50;50.60;;;;;;5116864;27;20028;-58
2022/04/14 10:00:37;;;;;;;7.47;5.22;;;20.50;50.50;;;;;;5115561;27;20046;-58
2022/04/14 10:03:20;;;;;;;6.68;5.28;;;20.50;50.50;;;;;;5117772;27;20048;-58
2022/04/14 10:05:51;;;;;;;8.77;5.60;;;20.50;50.60;;;;;;5115964;27;20118;-58
2022/04/14 10:08:17;;;;;;;6.90;5.63;;;20.50;50.60;;;;;;5117017;27;20182;-57
2022/04/14 10:10:44;;;;;;;7.55;5.70;;;20.50;50.70;;;;;;5115696;27;20047;-56
2022/04/14 10:13:13;;;;;;;6.70;5.78;;;20.50;50.70;;;;;;5114359;27;20142;-57
2022/04/14 10:15:41;;;;;;;8.75;6.10;;;20.50;50.80;;;;;;5117375;27;20104;-57
2022/04/14 10:18:13;;;;;;;10.02;6.03;;;20.50;50.80;;;;;;5118568;27;20039;-59
2022/04/14 10:20:42;;;;;;;9.27;5.30;;;20.60;50.80;;;;;;5115446;27;20375;-58
2022/04/14 10:23:10;;;;;;;7.47;5.63;;;20.60;50.90;;;;;;5117794;27;20039;-57
2022/04/14 10:25:37;;;;;;;7.25;5.88;;;20.60;50.80;;;;;;5115939;27;20179;-57
2022/04/14 10:28:08;;;;;;;7.95;6.35;;;20.60;50.80;;;;;;5116829;27;20046;-58
2022/04/14 10:30:34;;;;;;;7.60;6.25;;;20.60;50.80;;;;;;5117536;27;20382;-57
2022/04/14 10:32:59;;;;;;;9.10;6.25;;;20.60;50.80;;;;;;5116375;27;20047;-57
2022/04/14 10:35:29;;;;;;;9.68;6.25;;;20.60;50.80;;;;;;5114764;27;20100;-56
2022/04/14 10:38:13;;;;;;;8.02;5.90;;;20.60;51.30;;;;;;5112709;27;20050;-57
2022/04/14 10:40:50;;;;;;;6.88;5.65;;;20.60;50.80;;;;;;5113484;27;20404;-53
2022/04/14 10:43:20;;;;;;;7.15;5.55;;;20.60;50.80;;;;;;5111738;27;20264;-53
2022/04/14 10:45:57;;;;;;;9.52;5.18;;;20.60;50.90;;;;;;5116696;27;20465;-56
2022/04/14 10:48:28;;;;;;;7.90;5.60;;;20.60;50.80;;;;;;5114587;27;20047;-56
2022/04/14 10:51:24;;;;;;;5.50;4.80;;;20.60;50.50;;;;;;5114493;27;20059;-57
2022/04/14 10:54:07;;;;;;;5.60;4.30;;;20.60;50.40;;;;;;5105823;27;20055;-58
2022/04/14 10:56:41;;;;;;;6.13;4.53;;;20.60;50.50;;;;;;5112459;27;20035;-57
2022/04/14 10:59:17;;;;;;;6.78;4.88;;;20.60;50.60;;;;;;5111749;27;20426;-57
2022/04/14 11:01:45;;;;;;;6.50;4.38;;;20.60;50.60;;;;;;5112425;27;20600;-57
2022/04/14 11:04:23;;;;;;;4.68;3.80;;;20.60;50.60;;;;;;5117428;27;20081;-55
2022/04/14 11:06:51;;;;;;;6.47;3.80;;;20.60;50.60;;;;;;5115025;27;20522;-55
2022/04/14 11:09:39;;;;;;;8.20;4.10;;;20.60;50.80;;;;;;5115123;27;20044;-56
2022/04/14 11:12:08;;;;;;;8.40;4.00;;;20.60;50.50;;;;;;5115329;27;20075;-55
2022/04/14 11:14:42;;;;;;;9.77;3.97;;;20.60;50.60;;;;;;5113516;27;20126;-58
2022/04/14 11:17:48;;;;;;;6.78;3.75;;;20.60;50.60;;;;;;5121886;27;20087;-57
2022/04/14 11:20:45;;;;;;;10.48;3.90;;;20.60;50.60;;;;;;5114570;27;20130;-57
2022/04/14 11:23:24;;;;;;;8.57;3.30;;;20.60;50.60;;;;;;5114806;27;20044;-57
2022/04/14 11:25:50;;;;;;;7.68;4.10;;;20.60;50.60;;;;;;5120975;27;20069;-57
2022/04/14 11:28:33;;;;;;;6.28;3.33;;;20.60;50.60;;;;;;5114083;27;20690;-57
2022/04/14 11:31:03;;;;;;;5.97;3.05;;;20.60;50.50;;;;;;5115934;27;20050;-57
2022/04/14 11:33:31;;;;;;;6.38;3.30;;;20.60;50.50;;;;;;5114735;27;20028;-56
2022/04/14 11:36:10;;;;;;;5.45;2.90;;;20.60;50.50;;;;;;5112535;27;20177;-58
2022/04/14 11:38:57;;;;;;;8.50;3.50;;;20.60;50.50;;;;;;5113269;27;20122;-57
2022/04/14 11:41:32;;;;;;;4.88;2.78;;;20.60;50.50;;;;;;5114660;27;20114;-57
2022/04/14 11:44:00;;;;;;;4.95;3.05;;;20.60;50.50;;;;;;5113692;27;20107;-57
2022/04/14 11:46:26;;;;;;;4.10;2.40;;;20.60;50.50;;;;;;5115085;27;20075;-57
2022/04/14 11:48:52;;;;;;;4.13;2.70;;;20.60;50.50;;;;;;5114614;27;20050;-57
2022/04/14 11:51:18;;;;;;;6.35;2.95;;;20.60;50.50;;;;;;5115372;27;20039;-57
2022/04/14 11:53:43;;;;;;;5.07;2.65;;;20.60;50.40;;;;;;5104726;27;20052;-56
2022/04/14 11:56:19;;;;;;;3.67;2.40;;;20.60;50.50;;;;;;5115786;27;20070;-57
2022/04/14 11:58:45;;;;;;;7.18;2.50;;;20.70;50.40;;;;;;5121810;27;20039;-56
2022/04/14 12:01:12;;;;;;;6.60;3.00;;;20.60;50.40;;;;;;5115023;27;20078;-57
2022/04/14 12:03:38;;;;;;;4.20;2.42;;;20.60;50.40;;;;;;5111927;27;20040;-56
2022/04/14 12:06:10;;;;;;;3.67;2.35;;;20.60;50.30;;;;;;5114518;27;20043;-56
2022/04/14 12:08:36;;;;;;;7.93;2.45;;;20.60;50.30;;;;;;5114406;27;20074;-56
2022/04/14 12:11:17;;;;;;;6.18;2.72;;;20.70;50.30;;;;;;5111382;27;20070;-57
2022/04/14 12:13:43;;;;;;;4.40;2.15;;;20.70;50.30;;;;;;5111872;27;20586;-57
2022/04/14 12:16:10;;;;;;;3.22;2.20;;;20.70;50.30;;;;;;5113322;27;20056;-57
2022/04/14 12:18:39;;;;;;;3.00;2.05;;;20.70;50.30;;;;;;5115563;27;20047;-56
2022/04/14 12:21:06;;;;;;;4.60;2.20;;;20.70;50.20;;;;;;5113064;27;20485;-57
2022/04/14 12:23:32;;;;;;;2.50;1.75;;;20.70;50.20;;;;;;5114751;27;20049;-57
2022/04/14 12:26:00;;;;;;;3.05;2.25;;;20.70;50.10;;;;;;5114060;27;20083;-56
2022/04/14 12:28:25;;;;;;;2.80;1.90;;;20.70;50.80;;;;;;5114384;27;20049;-57
2022/04/14 12:30:51;;;;;;;5.53;2.20;;;20.70;50.00;;;;;;5112678;28;20036;-57
2022/04/14 12:33:26;;;;;;;4.65;2.28;;;20.70;50.00;;;;;;5112981;27;20126;-58
2022/04/14 12:35:52;;;;;;;3.00;1.85;;;20.70;50.00;;;;;;5093644;27;20108;-58
2022/04/14 12:38:18;;;;;;;2.60;1.70;;;20.70;49.90;;;;;;5113909;27;20122;-57
2022/04/14 12:41:07;;;;;;;3.17;1.88;;;20.70;49.90;;;;;;5114241;28;20050;-57
2022/04/14 12:43:39;;;;;;;3.00;2.08;;;20.70;50.20;;;;;;5112589;28;20039;-57
2022/04/14 12:46:25;;;;;;;3.75;2.10;;;20.70;51.40;;;;;;5111871;28;20039;-58
2022/04/14 12:49:03;;;;;;;3.70;2.00;;;20.70;51.20;;;;;;5111318;28;20046;-57
2022/04/14 12:51:38;;;;;;;2.60;2.03;;;20.70;51.30;;;;;;5115450;28;20050;-58